createdAt,value
2019-05-01T00:00:50.740Z,37.93
2019-05-01T00:05:56.554Z,38.13
2019-05-01T00:10:58.635Z,32.83
2019-05-01T00:16:00.770Z,32.03
2019-05-01T00:21:02.852Z,33.03
2019-05-01T00:26:05.103Z,30.13
2019-05-01T00:31:07.422Z,32.87
2019-05-01T00:36:09.507Z,32.70
2019-05-01T00:41:11.589Z,28.57
2019-05-01T00:46:13.726Z,35.50
2019-05-01T00:51:15.860Z,34.60
2019-05-01T00:56:40.124Z,31.47
2019-05-01T01:02:00.308Z,35.53
2019-05-01T01:07:02.500Z,36.53
2019-05-01T01:12:04.559Z,34.07
2019-05-01T01:17:06.593Z,30.87
2019-05-01T01:22:08.642Z,34.47
2019-05-01T01:27:11.010Z,30.23
2019-05-01T01:32:13.193Z,34.13
2019-05-01T01:37:15.239Z,32.93
2019-05-01T01:42:17.997Z,31.23
2019-05-01T01:47:20.071Z,34.97
2019-05-01T01:52:22.676Z,35.77
2019-05-01T01:57:25.058Z,31.50
2019-05-01T02:02:35.935Z,32.83
2019-05-01T02:07:38.190Z,34.73
2019-05-01T02:12:40.622Z,35.90
2019-05-01T02:17:42.664Z,35.73
2019-05-01T02:22:44.750Z,32.00
2019-05-01T02:28:12.122Z,33.77
2019-05-01T02:33:27.660Z,29.60
2019-05-01T02:38:31.400Z,32.87
2019-05-01T02:43:37.217Z,26.37
2019-05-01T02:48:43.956Z,26.37
2019-05-01T02:53:47.736Z,26.00
2019-05-01T02:58:53.526Z,27.03
2019-05-01T03:03:56.936Z,24.27
2019-05-01T03:09:00.552Z,25.07
2019-05-01T03:14:03.489Z,25.10
2019-05-01T03:19:10.059Z,27.90
2019-05-01T03:24:16.950Z,25.63
2019-05-01T03:29:19.829Z,26.93
2019-05-01T03:34:22.189Z,22.77
2019-05-01T03:39:24.218Z,23.13
2019-05-01T03:44:26.442Z,20.97
2019-05-01T03:49:28.855Z,31.17
2019-05-01T03:54:32.152Z,25.33
2019-05-01T03:59:34.696Z,21.63
2019-05-01T04:04:37.085Z,26.77
2019-05-01T04:09:40.287Z,22.33
2019-05-01T04:14:42.631Z,24.93
2019-05-01T04:19:45.071Z,23.60
2019-05-01T04:24:48.085Z,26.23
2019-05-01T04:30:02.342Z,25.67
2019-05-01T04:35:19.366Z,27.83
2019-05-01T04:40:21.597Z,26.90
2019-05-01T04:45:24.358Z,27.53
2019-05-01T04:50:26.992Z,24.63
2019-05-01T04:55:30.491Z,28.20
2019-05-01T05:00:33.249Z,25.97
2019-05-01T05:05:35.500Z,27.60
2019-05-01T05:10:39.620Z,28.47
2019-05-01T05:15:50.781Z,28.33
2019-05-01T05:20:52.907Z,30.10
2019-05-01T05:25:55.326Z,31.13
2019-05-01T05:30:58.168Z,27.53
2019-05-01T05:36:02.727Z,29.60
2019-05-01T05:41:05.575Z,31.90
2019-05-01T05:46:07.867Z,33.17
2019-05-01T05:51:19.622Z,32.53
2019-05-01T05:56:49.080Z,30.47
2019-05-01T06:02:10.222Z,31.10
2019-05-01T06:07:32.452Z,30.53
2019-05-01T06:12:46.893Z,30.07
2019-05-01T06:18:22.658Z,25.40
2019-05-01T06:23:41.928Z,28.60
2019-05-01T06:28:44.063Z,27.27
2019-05-01T06:33:48.673Z,29.83
2019-05-01T06:38:50.394Z,28.83
2019-05-01T06:44:04.049Z,29.07
2019-05-01T06:49:30.970Z,26.07
2019-05-01T06:54:35.188Z,25.90
2019-05-01T06:59:38.830Z,30.10
2019-05-01T07:04:42.943Z,27.27
2019-05-01T07:09:49.227Z,27.03
2019-05-01T07:14:52.118Z,27.53
2019-05-01T07:20:19.064Z,27.60
2019-05-01T07:25:21.247Z,26.00
2019-05-01T07:30:49.803Z,24.63
2019-05-01T07:35:54.032Z,27.70
2019-05-01T07:40:58.851Z,26.50
2019-05-01T07:46:21.429Z,25.70
2019-05-01T07:51:23.716Z,24.57
2019-05-01T07:56:28.245Z,25.77
2019-05-01T08:01:49.910Z,24.93
2019-05-01T08:06:51.997Z,26.20
2019-05-01T08:11:53.987Z,29.60
2019-05-01T08:16:56.096Z,29.43
2019-05-01T08:22:13.635Z,29.57
2019-05-01T08:27:28.624Z,34.10
2019-05-01T08:32:42.106Z,34.43
2019-05-01T08:37:44.276Z,34.73
2019-05-01T08:42:46.867Z,39.53
2019-05-01T08:48:01.523Z,40.20
2019-05-01T08:53:04.149Z,43.40
2019-05-01T08:58:08.806Z,41.30
2019-05-01T09:03:13.547Z,43.40
2019-05-01T09:08:15.226Z,42.00
2019-05-01T09:13:18.950Z,42.97
2019-05-01T09:18:21.245Z,38.07
2019-05-01T09:23:23.399Z,44.23
2019-05-01T09:28:29.819Z,43.87
2019-05-01T09:33:32.125Z,38.13
2019-05-01T09:38:34.367Z,36.37
2019-05-01T09:43:37.082Z,34.13
2019-05-01T09:48:39.634Z,31.87
2019-05-01T09:53:55.884Z,33.73
2019-05-01T09:58:57.981Z,31.53
2019-05-01T10:04:00.226Z,32.37
2019-05-01T10:09:04.882Z,30.30
2019-05-01T10:14:06.976Z,21.97
2019-05-01T10:19:09.018Z,21.17
2019-05-01T10:24:11.077Z,19.03
2019-05-01T10:29:35.786Z,21.75
2019-05-01T10:34:51.110Z,24.70
2019-05-01T10:39:54.100Z,26.20
2019-05-01T10:44:57.536Z,27.87
2019-05-01T10:49:59.621Z,28.53
2019-05-01T10:55:03.754Z,26.42
2019-05-01T11:00:06.321Z,25.43
2019-05-01T11:05:08.941Z,27.50
2019-05-01T11:10:11.117Z,24.87
2019-05-01T11:15:14.497Z,19.35
2019-05-01T11:20:16.558Z,17.37
2019-05-01T11:25:20.185Z,20.30
2019-05-01T11:30:22.591Z,20.10
2019-05-01T11:35:41.994Z,17.82
2019-05-01T11:40:48.639Z,18.80
2019-05-01T11:45:51.347Z,18.67
2019-05-01T11:50:55.392Z,19.98
2019-05-01T11:55:57.473Z,22.20
2019-05-01T12:01:01.334Z,18.73
2019-05-01T12:06:03.410Z,21.97
2019-05-01T12:11:08.256Z,18.05
2019-05-01T12:16:17.637Z,18.00
2019-05-01T12:21:19.708Z,16.60
2019-05-01T12:26:21.800Z,17.90
2019-05-01T12:31:23.857Z,16.48
2019-05-01T12:36:36.133Z,12.05
2019-05-01T12:41:35.634Z,11.45
2019-05-01T12:46:44.170Z,10.30
2019-05-01T12:51:48.170Z,12.78
2019-05-01T12:56:53.803Z,13.43
2019-05-01T13:01:55.875Z,12.20
2019-05-01T13:06:59.133Z,11.93
2019-05-01T13:12:01.228Z,12.60
2019-05-01T13:17:03.241Z,13.35
2019-05-01T13:22:05.468Z,12.23
2019-05-01T13:27:13.714Z,14.13
2019-05-01T13:32:38.341Z,17.00
2019-05-01T13:37:40.508Z,15.63
2019-05-01T13:42:42.574Z,14.37
2019-05-01T13:47:44.931Z,18.37
2019-05-01T13:52:47.176Z,13.77
2019-05-01T13:57:49.219Z,11.10
2019-05-01T14:02:51.299Z,13.37
2019-05-01T14:07:53.424Z,11.57
2019-05-01T14:12:55.489Z,11.73
2019-05-01T14:17:57.582Z,10.23
2019-05-01T14:23:14.775Z,12.77
2019-05-01T14:28:16.902Z,12.80
2019-05-01T14:33:18.963Z,9.93
2019-05-01T14:38:21.028Z,11.63
2019-05-01T14:43:23.155Z,8.33
2019-05-01T14:48:25.486Z,11.30
2019-05-01T14:53:27.627Z,12.30
2019-05-01T14:58:29.698Z,10.53
2019-05-01T15:03:31.887Z,10.93
2019-05-01T15:08:33.975Z,10.60
2019-05-01T15:13:48.748Z,10.27
2019-05-01T15:19:02.751Z,9.90
2019-05-01T15:24:04.809Z,7.40
2019-05-01T15:29:06.864Z,7.57
2019-05-01T15:34:08.932Z,9.90
2019-05-01T15:39:17.409Z,9.57
2019-05-01T15:44:32.120Z,9.53
2019-05-01T15:49:34.252Z,8.57
2019-05-01T15:54:36.339Z,11.87
2019-05-01T15:59:38.523Z,9.43
2019-05-01T16:04:40.748Z,11.93
2019-05-01T16:09:42.791Z,8.80
2019-05-01T16:14:48.994Z,10.57
2019-05-01T16:19:51.123Z,10.10
2019-05-01T16:24:53.233Z,8.80
2019-05-01T16:29:55.284Z,8.70
2019-05-01T16:34:57.362Z,8.97
2019-05-01T16:40:09.002Z,8.57
2019-05-01T16:45:11.867Z,9.27
2019-05-01T16:50:14.301Z,10.07
2019-05-01T16:55:17.043Z,8.90
2019-05-01T17:00:26.379Z,9.63
2019-05-01T17:05:46.391Z,8.17
2019-05-01T17:10:49.275Z,13.80
2019-05-01T17:15:51.316Z,9.77
2019-05-01T17:20:53.431Z,9.53
2019-05-01T17:25:55.515Z,10.83
2019-05-01T17:31:00.250Z,8.70
2019-05-01T17:36:02.362Z,10.53
2019-05-01T17:41:04.617Z,9.33
2019-05-01T17:46:10.882Z,13.90
2019-05-01T17:51:10.798Z,12.53
2019-05-01T17:56:15.356Z,12.50
2019-05-01T18:01:37.437Z,21.57
2019-05-01T18:06:46.568Z,25.93
2019-05-01T18:11:47.432Z,12.03
2019-05-01T18:16:50.430Z,13.77
2019-05-01T18:22:02.290Z,13.50
2019-05-01T18:27:19.148Z,13.80
2019-05-01T18:32:27.582Z,13.83
2019-05-01T18:37:36.359Z,16.40
2019-05-01T18:42:38.558Z,18.27
2019-05-01T18:47:40.632Z,14.57
2019-05-01T18:52:42.667Z,14.97
2019-05-01T18:57:44.792Z,15.90
2019-05-01T19:02:46.902Z,17.40
2019-05-01T19:07:49.138Z,18.00
2019-05-01T19:12:51.238Z,16.37
2019-05-01T19:17:53.388Z,18.97
2019-05-01T19:22:55.455Z,16.47
2019-05-01T19:27:57.574Z,18.27
2019-05-01T19:32:59.643Z,17.90
2019-05-01T19:38:01.859Z,20.23
2019-05-01T19:43:04.102Z,17.03
2019-05-01T19:48:06.509Z,18.87
2019-05-01T19:53:10.158Z,19.97
2019-05-01T19:58:12.566Z,19.33
2019-05-01T20:03:14.985Z,19.67
2019-05-01T20:08:17.072Z,29.33
2019-05-01T20:13:19.171Z,20.23
2019-05-01T20:18:21.268Z,19.67
2019-05-01T20:23:26.262Z,20.60
2019-05-01T20:28:28.430Z,26.63
2019-05-01T20:33:33.424Z,29.27
2019-05-01T20:38:34.559Z,24.07
2019-05-01T20:43:38.159Z,27.83
2019-05-01T20:48:40.653Z,30.90
2019-05-01T20:53:42.797Z,26.47
2019-05-01T20:58:45.116Z,24.53
2019-05-01T21:03:57.291Z,26.13
2019-05-01T21:09:15.856Z,25.97
2019-05-01T21:14:22.750Z,24.20
2019-05-01T21:19:23.357Z,26.30
2019-05-01T21:24:26.042Z,29.67
2019-05-01T21:29:28.204Z,26.67
2019-05-01T21:34:30.289Z,26.53
2019-05-01T21:39:33.482Z,27.43
2019-05-01T21:44:35.563Z,28.87
2019-05-01T21:49:37.625Z,29.67
2019-05-01T21:54:39.762Z,28.00
2019-05-01T21:59:44.691Z,28.70
2019-05-01T22:04:45.855Z,27.30
2019-05-01T22:09:50.571Z,32.43
2019-05-01T22:14:58.549Z,30.80
2019-05-01T22:20:00.857Z,30.03
2019-05-01T22:25:29.521Z,29.83
2019-05-01T22:30:42.239Z,29.67
2019-05-01T22:35:45.994Z,28.50
2019-05-01T22:41:22.869Z,32.77
2019-05-01T22:46:28.622Z,31.33
2019-05-01T22:51:30.712Z,31.23
2019-05-01T22:56:32.789Z,29.83
2019-05-01T23:01:35.176Z,34.10
2019-05-01T23:06:41.862Z,32.17
2019-05-01T23:11:45.194Z,31.47
2019-05-01T23:16:58.663Z,29.47
2019-05-01T23:21:59.352Z,36.33
2019-05-01T23:27:01.435Z,32.80
2019-05-01T23:32:04.701Z,29.93
2019-05-01T23:37:06.817Z,32.07
2019-05-01T23:42:08.911Z,32.43
2019-05-01T23:47:10.982Z,34.17
2019-05-01T23:52:13.217Z,33.33
2019-05-01T23:57:18.800Z,30.37
